sensor_id;sensor_type;location;lat;lon;timestamp;temperature;humidity
11126;DHT22;5617;54.046;10.676;2023-05-21T00:02:07;11.90;99.70
11126;DHT22;5617;54.046;10.676;2023-05-21T00:04:19;11.90;99.70
11126;DHT22;5617;54.046;10.676;2023-05-21T00:06:27;12.00;99.80
11126;DHT22;5617;54.046;10.676;2023-05-21T00:08:35;11.90;99.80
11126;DHT22;5617;54.046;10.676;2023-05-21T00:10:42;11.90;99.90
11126;DHT22;5617;54.046;10.676;2023-05-21T00:12:50;11.90;99.90
11126;DHT22;5617;54.046;10.676;2023-05-21T00:15:00;11.90;99.90
11126;DHT22;5617;54.046;10.676;2023-05-21T00:17:08;11.80;99.90
11126;DHT22;5617;54.046;10.676;2023-05-21T00:19:16;11.80;99.90
11126;DHT22;5617;54.046;10.676;2023-05-21T00:21:24;11.70;99.90
11126;DHT22;5617;54.046;10.676;2023-05-21T00:23:32;11.70;99.90
11126;DHT22;5617;54.046;10.676;2023-05-21T00:25:41;11.80;99.90
11126;DHT22;5617;54.046;10.676;2023-05-21T00:27:49;11.80;99.90
11126;DHT22;5617;54.046;10.676;2023-05-21T00:29:56;11.70;99.90
11126;DHT22;5617;54.046;10.676;2023-05-21T00:32:06;11.70;99.90
11126;DHT22;5617;54.046;10.676;2023-05-21T00:34:13;11.70;99.90
11126;DHT22;5617;54.046;10.676;2023-05-21T00:36:21;11.70;99.90
11126;DHT22;5617;54.046;10.676;2023-05-21T00:38:29;11.70;99.90
11126;DHT22;5617;54.046;10.676;2023-05-21T00:40:38;11.70;99.90
11126;DHT22;5617;54.046;10.676;2023-05-21T00:42:46;11.70;99.90
11126;DHT22;5617;54.046;10.676;2023-05-21T00:44:55;11.70;99.90
11126;DHT22;5617;54.046;10.676;2023-05-21T00:47:03;11.70;99.90
11126;DHT22;5617;54.046;10.676;2023-05-21T00:49:13;11.70;99.90
11126;DHT22;5617;54.046;10.676;2023-05-21T00:51:21;11.70;99.90
11126;DHT22;5617;54.046;10.676;2023-05-21T00:53:29;11.70;99.90
11126;DHT22;5617;54.046;10.676;2023-05-21T00:55:37;11.70;99.90
11126;DHT22;5617;54.046;10.676;2023-05-21T00:57:44;11.80;99.90
11126;DHT22;5617;54.046;10.676;2023-05-21T00:59:53;11.80;99.90
11126;DHT22;5617;54.046;10.676;2023-05-21T01:02:00;11.80;99.90
11126;DHT22;5617;54.046;10.676;2023-05-21T01:04:12;11.80;99.90
11126;DHT22;5617;54.046;10.676;2023-05-21T01:06:19;11.80;99.90
11126;DHT22;5617;54.046;10.676;2023-05-21T01:08:28;11.80;99.90
11126;DHT22;5617;54.046;10.676;2023-05-21T01:10:36;11.90;99.90
11126;DHT22;5617;54.046;10.676;2023-05-21T01:12:45;11.90;99.90
11126;DHT22;5617;54.046;10.676;2023-05-21T01:14:53;11.90;99.90
11126;DHT22;5617;54.046;10.676;2023-05-21T01:17:02;11.90;99.90
11126;DHT22;5617;54.046;10.676;2023-05-21T01:19:15;11.90;99.90
11126;DHT22;5617;54.046;10.676;2023-05-21T01:21:24;11.90;99.90
11126;DHT22;5617;54.046;10.676;2023-05-21T01:23:35;11.90;99.90
11126;DHT22;5617;54.046;10.676;2023-05-21T01:25:42;11.90;99.90
11126;DHT22;5617;54.046;10.676;2023-05-21T01:27:50;11.90;99.90
11126;DHT22;5617;54.046;10.676;2023-05-21T01:29:58;11.90;99.90
11126;DHT22;5617;54.046;10.676;2023-05-21T01:32:13;11.90;99.90
11126;DHT22;5617;54.046;10.676;2023-05-21T01:34:25;11.90;99.90
11126;DHT22;5617;54.046;10.676;2023-05-21T01:36:37;11.90;99.90
11126;DHT22;5617;54.046;10.676;2023-05-21T01:38:53;11.90;99.90
11126;DHT22;5617;54.046;10.676;2023-05-21T01:41:03;11.90;99.90
11126;DHT22;5617;54.046;10.676;2023-05-21T01:43:13;11.80;99.90
11126;DHT22;5617;54.046;10.676;2023-05-21T01:45:23;11.80;99.90
11126;DHT22;5617;54.046;10.676;2023-05-21T01:47:32;11.80;99.90
11126;DHT22;5617;54.046;10.676;2023-05-21T01:49:43;11.80;99.90
11126;DHT22;5617;54.046;10.676;2023-05-21T01:51:51;11.70;99.90
11126;DHT22;5617;54.046;10.676;2023-05-21T01:54:00;11.70;99.90
11126;DHT22;5617;54.046;10.676;2023-05-21T01:56:08;11.70;99.90
11126;DHT22;5617;54.046;10.676;2023-05-21T01:58:16;11.60;99.90
11126;DHT22;5617;54.046;10.676;2023-05-21T02:00:26;11.60;99.90
11126;DHT22;5617;54.046;10.676;2023-05-21T02:02:34;11.70;99.90
11126;DHT22;5617;54.046;10.676;2023-05-21T02:04:42;11.60;99.90
11126;DHT22;5617;54.046;10.676;2023-05-21T02:06:51;11.60;99.90
11126;DHT22;5617;54.046;10.676;2023-05-21T02:09:01;11.60;99.90
11126;DHT22;5617;54.046;10.676;2023-05-21T02:11:10;11.60;99.90
11126;DHT22;5617;54.046;10.676;2023-05-21T02:13:17;11.60;99.90
11126;DHT22;5617;54.046;10.676;2023-05-21T02:15:26;11.60;99.90
11126;DHT22;5617;54.046;10.676;2023-05-21T02:17:33;11.60;99.90
11126;DHT22;5617;54.046;10.676;2023-05-21T02:19:41;11.60;99.90
11126;DHT22;5617;54.046;10.676;2023-05-21T02:21:50;11.60;99.90
11126;DHT22;5617;54.046;10.676;2023-05-21T02:23:58;11.60;99.90
11126;DHT22;5617;54.046;10.676;2023-05-21T02:26:08;11.60;99.90
11126;DHT22;5617;54.046;10.676;2023-05-21T02:28:15;11.60;99.90
11126;DHT22;5617;54.046;10.676;2023-05-21T02:30:23;11.50;99.90
11126;DHT22;5617;54.046;10.676;2023-05-21T02:32:32;11.50;99.90
11126;DHT22;5617;54.046;10.676;2023-05-21T02:34:40;11.50;99.90
11126;DHT22;5617;54.046;10.676;2023-05-21T02:36:49;11.50;99.90
11126;DHT22;5617;54.046;10.676;2023-05-21T02:38:58;11.50;99.90
11126;DHT22;5617;54.046;10.676;2023-05-21T02:41:08;11.50;99.90
11126;DHT22;5617;54.046;10.676;2023-05-21T02:43:17;11.60;99.90
11126;DHT22;5617;54.046;10.676;2023-05-21T02:45:24;11.50;99.90
11126;DHT22;5617;54.046;10.676;2023-05-21T02:47:31;11.50;99.90
11126;DHT22;5617;54.046;10.676;2023-05-21T02:49:39;11.50;99.90
11126;DHT22;5617;54.046;10.676;2023-05-21T02:51:47;11.50;99.90
11126;DHT22;5617;54.046;10.676;2023-05-21T02:53:55;11.40;99.90
11126;DHT22;5617;54.046;10.676;2023-05-21T02:56:03;11.50;99.90
11126;DHT22;5617;54.046;10.676;2023-05-21T02:58:13;11.40;99.90
11126;DHT22;5617;54.046;10.676;2023-05-21T03:00:21;11.40;99.90
11126;DHT22;5617;54.046;10.676;2023-05-21T03:02:28;11.40;99.90
11126;DHT22;5617;54.046;10.676;2023-05-21T03:04:37;11.40;99.90
11126;DHT22;5617;54.046;10.676;2023-05-21T03:06:51;11.40;99.90
11126;DHT22;5617;54.046;10.676;2023-05-21T03:09:00;11.40;99.90
11126;DHT22;5617;54.046;10.676;2023-05-21T03:11:08;11.40;99.90
11126;DHT22;5617;54.046;10.676;2023-05-21T03:13:17;11.40;99.90
11126;DHT22;5617;54.046;10.676;2023-05-21T03:15:25;11.40;99.90
11126;DHT22;5617;54.046;10.676;2023-05-21T03:17:33;11.40;99.90
11126;DHT22;5617;54.046;10.676;2023-05-21T03:19:41;11.40;99.90
11126;DHT22;5617;54.046;10.676;2023-05-21T03:21:49;11.40;99.90
11126;DHT22;5617;54.046;10.676;2023-05-21T03:23:56;11.40;99.90
11126;DHT22;5617;54.046;10.676;2023-05-21T03:26:05;11.40;99.90
11126;DHT22;5617;54.046;10.676;2023-05-21T03:28:12;11.40;99.90
11126;DHT22;5617;54.046;10.676;2023-05-21T03:30:21;11.40;99.90
11126;DHT22;5617;54.046;10.676;2023-05-21T03:32:29;11.40;99.90
11126;DHT22;5617;54.046;10.676;2023-05-21T03:34:39;11.40;99.90
11126;DHT22;5617;54.046;10.676;2023-05-21T03:36:46;11.40;99.90
11126;DHT22;5617;54.046;10.676;2023-05-21T03:38:54;11.40;99.90
11126;DHT22;5617;54.046;10.676;2023-05-21T03:41:01;11.40;99.90
11126;DHT22;5617;54.046;10.676;2023-05-21T03:43:09;11.40;99.90
11126;DHT22;5617;54.046;10.676;2023-05-21T03:45:17;11.40;99.90
11126;DHT22;5617;54.046;10.676;2023-05-21T03:47:25;11.40;99.90
11126;DHT22;5617;54.046;10.676;2023-05-21T03:49:33;11.40;99.90
11126;DHT22;5617;54.046;10.676;2023-05-21T03:51:41;11.40;99.90
11126;DHT22;5617;54.046;10.676;2023-05-21T03:53:48;11.40;99.90
11126;DHT22;5617;54.046;10.676;2023-05-21T03:55:56;11.50;99.90
11126;DHT22;5617;54.046;10.676;2023-05-21T03:58:04;11.50;99.90
11126;DHT22;5617;54.046;10.676;2023-05-21T04:00:12;11.50;99.90
11126;DHT22;5617;54.046;10.676;2023-05-21T04:02:20;11.60;99.90
11126;DHT22;5617;54.046;10.676;2023-05-21T04:04:29;11.60;99.90
11126;DHT22;5617;54.046;10.676;2023-05-21T04:06:39;11.60;99.90
11126;DHT22;5617;54.046;10.676;2023-05-21T04:08:49;11.70;99.90
11126;DHT22;5617;54.046;10.676;2023-05-21T04:10:57;11.70;99.90
11126;DHT22;5617;54.046;10.676;2023-05-21T04:13:05;11.70;99.90
11126;DHT22;5617;54.046;10.676;2023-05-21T04:15:12;11.70;99.90
11126;DHT22;5617;54.046;10.676;2023-05-21T04:17:24;11.70;99.90
11126;DHT22;5617;54.046;10.676;2023-05-21T04:19:33;11.80;99.90
11126;DHT22;5617;54.046;10.676;2023-05-21T04:21:41;11.80;99.90
11126;DHT22;5617;54.046;10.676;2023-05-21T04:23:50;11.80;99.90
11126;DHT22;5617;54.046;10.676;2023-05-21T04:25:59;11.80;99.90
11126;DHT22;5617;54.046;10.676;2023-05-21T04:28:07;11.90;99.90
11126;DHT22;5617;54.046;10.676;2023-05-21T04:30:14;11.90;99.90
11126;DHT22;5617;54.046;10.676;2023-05-21T04:32:23;11.90;99.90
11126;DHT22;5617;54.046;10.676;2023-05-21T04:34:30;12.00;99.90
11126;DHT22;5617;54.046;10.676;2023-05-21T04:36:40;12.00;99.90
11126;DHT22;5617;54.046;10.676;2023-05-21T04:38:49;12.10;99.90
11126;DHT22;5617;54.046;10.676;2023-05-21T04:40:56;12.10;99.90
11126;DHT22;5617;54.046;10.676;2023-05-21T04:43:09;12.20;99.90
11126;DHT22;5617;54.046;10.676;2023-05-21T04:45:16;12.30;99.90
11126;DHT22;5617;54.046;10.676;2023-05-21T04:47:24;12.30;99.90
11126;DHT22;5617;54.046;10.676;2023-05-21T04:49:31;12.40;99.90
11126;DHT22;5617;54.046;10.676;2023-05-21T04:51:41;12.50;99.90
11126;DHT22;5617;54.046;10.676;2023-05-21T04:53:49;12.50;99.90
11126;DHT22;5617;54.046;10.676;2023-05-21T04:55:57;12.60;99.90
11126;DHT22;5617;54.046;10.676;2023-05-21T04:58:05;12.70;99.90
11126;DHT22;5617;54.046;10.676;2023-05-21T05:00:12;12.80;99.90
11126;DHT22;5617;54.046;10.676;2023-05-21T05:02:21;12.90;99.90
11126;DHT22;5617;54.046;10.676;2023-05-21T05:04:29;13.00;99.90
11126;DHT22;5617;54.046;10.676;2023-05-21T05:06:37;13.00;99.90
11126;DHT22;5617;54.046;10.676;2023-05-21T05:08:46;13.10;99.90
11126;DHT22;5617;54.046;10.676;2023-05-21T05:10:54;13.00;99.90
11126;DHT22;5617;54.046;10.676;2023-05-21T05:13:01;13.00;99.90
11126;DHT22;5617;54.046;10.676;2023-05-21T05:15:09;13.10;99.90
11126;DHT22;5617;54.046;10.676;2023-05-21T05:17:17;13.20;99.90
11126;DHT22;5617;54.046;10.676;2023-05-21T05:19:25;13.20;99.90
11126;DHT22;5617;54.046;10.676;2023-05-21T05:21:32;13.30;99.90
11126;DHT22;5617;54.046;10.676;2023-05-21T05:23:40;13.30;99.90
11126;DHT22;5617;54.046;10.676;2023-05-21T05:25:49;13.40;99.90
11126;DHT22;5617;54.046;10.676;2023-05-21T05:27:56;13.60;99.90
11126;DHT22;5617;54.046;10.676;2023-05-21T05:30:05;13.70;99.90
11126;DHT22;5617;54.046;10.676;2023-05-21T05:32:13;13.90;99.90
11126;DHT22;5617;54.046;10.676;2023-05-21T05:34:21;14.00;99.90
11126;DHT22;5617;54.046;10.676;2023-05-21T05:36:28;14.00;99.90
11126;DHT22;5617;54.046;10.676;2023-05-21T05:38:36;14.10;99.90
11126;DHT22;5617;54.046;10.676;2023-05-21T05:40:44;14.10;99.90
11126;DHT22;5617;54.046;10.676;2023-05-21T05:42:53;14.30;99.90
11126;DHT22;5617;54.046;10.676;2023-05-21T05:45:00;14.30;99.90
11126;DHT22;5617;54.046;10.676;2023-05-21T05:47:08;14.30;99.90
11126;DHT22;5617;54.046;10.676;2023-05-21T05:49:16;14.40;99.90
11126;DHT22;5617;54.046;10.676;2023-05-21T05:51:24;14.50;99.90
11126;DHT22;5617;54.046;10.676;2023-05-21T05:53:31;14.50;99.90
11126;DHT22;5617;54.046;10.676;2023-05-21T05:55:39;14.50;99.90
11126;DHT22;5617;54.046;10.676;2023-05-21T05:57:47;14.60;99.90
11126;DHT22;5617;54.046;10.676;2023-05-21T05:59:56;14.70;99.90
11126;DHT22;5617;54.046;10.676;2023-05-21T06:02:03;14.70;99.90
11126;DHT22;5617;54.046;10.676;2023-05-21T06:04:11;14.70;99.90
11126;DHT22;5617;54.046;10.676;2023-05-21T06:06:19;14.80;99.90
11126;DHT22;5617;54.046;10.676;2023-05-21T06:08:27;14.90;99.90
11126;DHT22;5617;54.046;10.676;2023-05-21T06:10:34;15.00;99.90
11126;DHT22;5617;54.046;10.676;2023-05-21T06:12:42;15.00;99.90
11126;DHT22;5617;54.046;10.676;2023-05-21T06:14:50;15.10;99.90
11126;DHT22;5617;54.046;10.676;2023-05-21T06:17:00;15.20;99.90
11126;DHT22;5617;54.046;10.676;2023-05-21T06:19:07;15.30;99.90
11126;DHT22;5617;54.046;10.676;2023-05-21T06:21:15;15.40;99.90
11126;DHT22;5617;54.046;10.676;2023-05-21T06:23:23;15.70;99.90
11126;DHT22;5617;54.046;10.676;2023-05-21T06:25:30;15.90;99.90
11126;DHT22;5617;54.046;10.676;2023-05-21T06:27:38;16.00;99.90
11126;DHT22;5617;54.046;10.676;2023-05-21T06:29:45;16.10;99.90
11126;DHT22;5617;54.046;10.676;2023-05-21T06:31:53;16.30;99.90
11126;DHT22;5617;54.046;10.676;2023-05-21T06:34:02;16.60;99.90
11126;DHT22;5617;54.046;10.676;2023-05-21T06:36:10;16.70;99.90
11126;DHT22;5617;54.046;10.676;2023-05-21T06:38:18;16.80;99.90
11126;DHT22;5617;54.046;10.676;2023-05-21T06:40:26;17.00;99.90
11126;DHT22;5617;54.046;10.676;2023-05-21T06:42:33;17.20;99.90
11126;DHT22;5617;54.046;10.676;2023-05-21T06:44:41;17.30;99.90
11126;DHT22;5617;54.046;10.676;2023-05-21T06:46:48;17.40;99.90
11126;DHT22;5617;54.046;10.676;2023-05-21T06:48:56;17.50;99.90
11126;DHT22;5617;54.046;10.676;2023-05-21T06:51:07;17.60;99.90
11126;DHT22;5617;54.046;10.676;2023-05-21T06:53:15;17.60;99.90
11126;DHT22;5617;54.046;10.676;2023-05-21T06:55:23;17.70;99.90
11126;DHT22;5617;54.046;10.676;2023-05-21T06:57:31;17.60;99.90
11126;DHT22;5617;54.046;10.676;2023-05-21T06:59:38;17.60;99.90
11126;DHT22;5617;54.046;10.676;2023-05-21T07:01:46;17.70;99.90
11126;DHT22;5617;54.046;10.676;2023-05-21T07:03:54;17.70;99.90
11126;DHT22;5617;54.046;10.676;2023-05-21T07:06:01;17.80;99.90
11126;DHT22;5617;54.046;10.676;2023-05-21T07:08:12;17.90;99.90
11126;DHT22;5617;54.046;10.676;2023-05-21T07:10:20;18.00;99.90
11126;DHT22;5617;54.046;10.676;2023-05-21T07:12:28;18.00;99.90
11126;DHT22;5617;54.046;10.676;2023-05-21T07:14:36;18.10;99.90
11126;DHT22;5617;54.046;10.676;2023-05-21T07:16:43;18.20;99.90
11126;DHT22;5617;54.046;10.676;2023-05-21T07:18:51;18.30;99.90
11126;DHT22;5617;54.046;10.676;2023-05-21T07:20:59;18.40;99.90
11126;DHT22;5617;54.046;10.676;2023-05-21T07:23:07;18.30;99.90
11126;DHT22;5617;54.046;10.676;2023-05-21T07:25:16;18.40;99.90
11126;DHT22;5617;54.046;10.676;2023-05-21T07:27:24;18.50;99.90
11126;DHT22;5617;54.046;10.676;2023-05-21T07:29:32;18.60;99.90
11126;DHT22;5617;54.046;10.676;2023-05-21T07:31:39;18.60;99.90
11126;DHT22;5617;54.046;10.676;2023-05-21T07:33:47;18.70;99.90
11126;DHT22;5617;54.046;10.676;2023-05-21T07:35:55;18.80;99.90
11126;DHT22;5617;54.046;10.676;2023-05-21T07:38:03;18.90;99.90
11126;DHT22;5617;54.046;10.676;2023-05-21T07:40:12;19.00;99.90
11126;DHT22;5617;54.046;10.676;2023-05-21T07:42:21;19.10;99.90
11126;DHT22;5617;54.046;10.676;2023-05-21T07:44:29;19.20;99.90
11126;DHT22;5617;54.046;10.676;2023-05-21T07:46:38;19.30;99.90
11126;DHT22;5617;54.046;10.676;2023-05-21T07:48:46;19.30;99.90
11126;DHT22;5617;54.046;10.676;2023-05-21T07:50:57;19.30;99.90
11126;DHT22;5617;54.046;10.676;2023-05-21T07:53:05;19.30;99.90
11126;DHT22;5617;54.046;10.676;2023-05-21T07:55:13;19.20;99.90
11126;DHT22;5617;54.046;10.676;2023-05-21T07:57:22;19.20;99.90
11126;DHT22;5617;54.046;10.676;2023-05-21T07:59:30;19.20;99.90
11126;DHT22;5617;54.046;10.676;2023-05-21T08:01:38;19.20;99.90
11126;DHT22;5617;54.046;10.676;2023-05-21T08:03:46;19.20;99.90
11126;DHT22;5617;54.046;10.676;2023-05-21T08:05:54;19.20;99.90
11126;DHT22;5617;54.046;10.676;2023-05-21T08:08:02;19.30;99.90
11126;DHT22;5617;54.046;10.676;2023-05-21T08:10:10;19.30;99.90
11126;DHT22;5617;54.046;10.676;2023-05-21T08:12:18;19.20;99.90
11126;DHT22;5617;54.046;10.676;2023-05-21T08:14:29;19.30;99.90
11126;DHT22;5617;54.046;10.676;2023-05-21T08:16:36;19.40;99.90
11126;DHT22;5617;54.046;10.676;2023-05-21T08:18:45;19.50;99.90
11126;DHT22;5617;54.046;10.676;2023-05-21T08:20:54;19.70;99.90
11126;DHT22;5617;54.046;10.676;2023-05-21T08:23:02;19.70;99.90
11126;DHT22;5617;54.046;10.676;2023-05-21T08:25:10;19.70;99.90
11126;DHT22;5617;54.046;10.676;2023-05-21T08:27:18;19.70;99.90
11126;DHT22;5617;54.046;10.676;2023-05-21T08:29:26;19.80;99.90
11126;DHT22;5617;54.046;10.676;2023-05-21T08:31:35;19.90;99.90
11126;DHT22;5617;54.046;10.676;2023-05-21T08:33:49;20.10;99.80
11126;DHT22;5617;54.046;10.676;2023-05-21T08:35:57;20.10;99.70
11126;DHT22;5617;54.046;10.676;2023-05-21T08:38:04;20.00;99.60
11126;DHT22;5617;54.046;10.676;2023-05-21T08:40:12;20.10;99.70
11126;DHT22;5617;54.046;10.676;2023-05-21T08:42:27;20.10;99.70
11126;DHT22;5617;54.046;10.676;2023-05-21T08:44:47;20.20;99.70
11126;DHT22;5617;54.046;10.676;2023-05-21T08:47:01;20.20;99.60
11126;DHT22;5617;54.046;10.676;2023-05-21T08:49:11;20.30;99.50
11126;DHT22;5617;54.046;10.676;2023-05-21T08:51:20;20.50;99.40
11126;DHT22;5617;54.046;10.676;2023-05-21T08:53:28;20.50;99.40
11126;DHT22;5617;54.046;10.676;2023-05-21T08:55:36;20.50;99.40
11126;DHT22;5617;54.046;10.676;2023-05-21T08:57:45;20.60;99.40
11126;DHT22;5617;54.046;10.676;2023-05-21T08:59:53;20.70;99.30
11126;DHT22;5617;54.046;10.676;2023-05-21T09:02:03;20.90;99.10
11126;DHT22;5617;54.046;10.676;2023-05-21T09:04:12;20.90;98.70
11126;DHT22;5617;54.046;10.676;2023-05-21T09:06:28;20.90;98.70
11126;DHT22;5617;54.046;10.676;2023-05-21T09:08:43;20.90;98.60
11126;DHT22;5617;54.046;10.676;2023-05-21T09:10:51;21.10;98.50
11126;DHT22;5617;54.046;10.676;2023-05-21T09:12:59;21.30;98.30
11126;DHT22;5617;54.046;10.676;2023-05-21T09:15:08;21.60;98.10
11126;DHT22;5617;54.046;10.676;2023-05-21T09:17:17;21.90;98.20
11126;DHT22;5617;54.046;10.676;2023-05-21T09:19:25;22.20;98.30
11126;DHT22;5617;54.046;10.676;2023-05-21T09:21:34;22.40;97.50
11126;DHT22;5617;54.046;10.676;2023-05-21T09:23:43;22.40;97.30
11126;DHT22;5617;54.046;10.676;2023-05-21T09:25:51;22.40;97.20
11126;DHT22;5617;54.046;10.676;2023-05-21T09:27:58;22.50;97.20
11126;DHT22;5617;54.046;10.676;2023-05-21T09:30:09;22.40;96.90
11126;DHT22;5617;54.046;10.676;2023-05-21T09:32:18;22.30;97.00
11126;DHT22;5617;54.046;10.676;2023-05-21T09:34:27;22.20;97.00
11126;DHT22;5617;54.046;10.676;2023-05-21T09:36:36;22.20;97.00
11126;DHT22;5617;54.046;10.676;2023-05-21T09:38:44;22.20;96.90
11126;DHT22;5617;54.046;10.676;2023-05-21T09:40:54;22.10;96.90
11126;DHT22;5617;54.046;10.676;2023-05-21T09:43:04;22.00;96.80
11126;DHT22;5617;54.046;10.676;2023-05-21T09:45:16;21.80;96.80
11126;DHT22;5617;54.046;10.676;2023-05-21T09:47:26;21.70;96.90
11126;DHT22;5617;54.046;10.676;2023-05-21T09:49:36;21.70;96.90
11126;DHT22;5617;54.046;10.676;2023-05-21T09:51:44;21.70;97.00
11126;DHT22;5617;54.046;10.676;2023-05-21T09:53:53;21.70;96.90
11126;DHT22;5617;54.046;10.676;2023-05-21T09:56:03;21.70;96.90
11126;DHT22;5617;54.046;10.676;2023-05-21T09:58:11;21.70;96.90
11126;DHT22;5617;54.046;10.676;2023-05-21T10:00:20;21.80;96.90
11126;DHT22;5617;54.046;10.676;2023-05-21T10:02:31;21.70;96.90
11126;DHT22;5617;54.046;10.676;2023-05-21T10:04:47;21.60;96.80
11126;DHT22;5617;54.046;10.676;2023-05-21T10:06:56;21.70;97.00
11126;DHT22;5617;54.046;10.676;2023-05-21T10:09:08;21.60;97.00
11126;DHT22;5617;54.046;10.676;2023-05-21T10:11:16;21.40;97.10
11126;DHT22;5617;54.046;10.676;2023-05-21T10:13:24;21.40;97.10
11126;DHT22;5617;54.046;10.676;2023-05-21T10:15:37;21.40;97.20
11126;DHT22;5617;54.046;10.676;2023-05-21T10:17:47;21.50;97.30
11126;DHT22;5617;54.046;10.676;2023-05-21T10:19:56;21.60;97.50
11126;DHT22;5617;54.046;10.676;2023-05-21T10:22:07;21.70;97.40
11126;DHT22;5617;54.046;10.676;2023-05-21T10:24:16;21.80;97.40
11126;DHT22;5617;54.046;10.676;2023-05-21T10:26:24;21.90;97.40
11126;DHT22;5617;54.046;10.676;2023-05-21T10:28:32;22.00;97.40
11126;DHT22;5617;54.046;10.676;2023-05-21T10:30:45;22.10;97.40
11126;DHT22;5617;54.046;10.676;2023-05-21T10:32:55;22.20;97.30
11126;DHT22;5617;54.046;10.676;2023-05-21T10:35:03;22.40;97.30
11126;DHT22;5617;54.046;10.676;2023-05-21T10:37:12;22.60;97.00
11126;DHT22;5617;54.046;10.676;2023-05-21T10:39:21;22.60;97.00
11126;DHT22;5617;54.046;10.676;2023-05-21T10:41:54;22.70;96.80
11126;DHT22;5617;54.046;10.676;2023-05-21T10:44:11;22.80;96.70
11126;DHT22;5617;54.046;10.676;2023-05-21T10:46:44;22.80;96.60
11126;DHT22;5617;54.046;10.676;2023-05-21T10:49:11;22.80;96.40
11126;DHT22;5617;54.046;10.676;2023-05-21T10:51:25;22.70;96.60
11126;DHT22;5617;54.046;10.676;2023-05-21T10:53:46;22.70;96.60
11126;DHT22;5617;54.046;10.676;2023-05-21T10:56:04;22.70;96.30
11126;DHT22;5617;54.046;10.676;2023-05-21T10:58:37;22.60;96.30
11126;DHT22;5617;54.046;10.676;2023-05-21T11:00:48;22.50;96.30
11126;DHT22;5617;54.046;10.676;2023-05-21T11:02:57;22.50;96.50
11126;DHT22;5617;54.046;10.676;2023-05-21T11:05:08;22.50;96.60
11126;DHT22;5617;54.046;10.676;2023-05-21T11:07:22;22.50;96.60
11126;DHT22;5617;54.046;10.676;2023-05-21T11:09:30;22.50;96.70
11126;DHT22;5617;54.046;10.676;2023-05-21T11:11:42;22.50;96.90
11126;DHT22;5617;54.046;10.676;2023-05-21T11:13:51;22.40;97.00
11126;DHT22;5617;54.046;10.676;2023-05-21T11:16:06;22.50;97.00
11126;DHT22;5617;54.046;10.676;2023-05-21T11:18:14;22.50;96.90
11126;DHT22;5617;54.046;10.676;2023-05-21T11:20:33;22.50;97.00
11126;DHT22;5617;54.046;10.676;2023-05-21T11:22:41;22.50;97.00
11126;DHT22;5617;54.046;10.676;2023-05-21T11:24:48;22.50;97.00
11126;DHT22;5617;54.046;10.676;2023-05-21T11:27:01;22.50;97.00
11126;DHT22;5617;54.046;10.676;2023-05-21T11:29:10;22.50;97.00
11126;DHT22;5617;54.046;10.676;2023-05-21T11:31:22;22.50;97.00
11126;DHT22;5617;54.046;10.676;2023-05-21T11:33:30;22.60;97.20
11126;DHT22;5617;54.046;10.676;2023-05-21T11:35:56;22.70;97.00
11126;DHT22;5617;54.046;10.676;2023-05-21T11:38:08;22.90;96.90
11126;DHT22;5617;54.046;10.676;2023-05-21T11:40:17;22.90;96.80
11126;DHT22;5617;54.046;10.676;2023-05-21T11:42:30;23.00;96.80
11126;DHT22;5617;54.046;10.676;2023-05-21T11:44:39;23.20;96.70
11126;DHT22;5617;54.046;10.676;2023-05-21T11:46:47;23.30;96.60
11126;DHT22;5617;54.046;10.676;2023-05-21T11:48:55;23.20;96.30
11126;DHT22;5617;54.046;10.676;2023-05-21T11:51:05;23.30;96.20
11126;DHT22;5617;54.046;10.676;2023-05-21T11:53:16;23.50;95.90
11126;DHT22;5617;54.046;10.676;2023-05-21T11:55:24;23.60;95.80
11126;DHT22;5617;54.046;10.676;2023-05-21T11:57:32;23.60;95.40
11126;DHT22;5617;54.046;10.676;2023-05-21T11:59:40;23.60;95.60
11126;DHT22;5617;54.046;10.676;2023-05-21T12:01:47;23.80;95.40
11126;DHT22;5617;54.046;10.676;2023-05-21T12:03:55;23.90;95.20
11126;DHT22;5617;54.046;10.676;2023-05-21T12:06:05;24.10;94.90
11126;DHT22;5617;54.046;10.676;2023-05-21T12:08:20;24.10;94.60
11126;DHT22;5617;54.046;10.676;2023-05-21T12:10:31;24.00;94.70
11126;DHT22;5617;54.046;10.676;2023-05-21T12:12:39;24.20;94.80
11126;DHT22;5617;54.046;10.676;2023-05-21T12:15:01;24.60;94.70
11126;DHT22;5617;54.046;10.676;2023-05-21T12:17:10;24.80;94.40
11126;DHT22;5617;54.046;10.676;2023-05-21T12:19:19;25.00;94.30
11126;DHT22;5617;54.046;10.676;2023-05-21T12:21:28;25.20;93.90
11126;DHT22;5617;54.046;10.676;2023-05-21T12:23:36;25.30;93.70
11126;DHT22;5617;54.046;10.676;2023-05-21T12:25:44;25.40;93.30
11126;DHT22;5617;54.046;10.676;2023-05-21T12:27:51;25.30;93.30
11126;DHT22;5617;54.046;10.676;2023-05-21T12:30:05;25.40;93.50
11126;DHT22;5617;54.046;10.676;2023-05-21T12:32:14;25.70;93.20
11126;DHT22;5617;54.046;10.676;2023-05-21T12:34:41;25.70;93.00
11126;DHT22;5617;54.046;10.676;2023-05-21T12:36:51;25.70;92.80
11126;DHT22;5617;54.046;10.676;2023-05-21T12:38:59;25.60;92.70
11126;DHT22;5617;54.046;10.676;2023-05-21T12:41:07;25.60;92.60
11126;DHT22;5617;54.046;10.676;2023-05-21T12:43:15;25.60;92.80
11126;DHT22;5617;54.046;10.676;2023-05-21T12:45:22;25.80;92.60
11126;DHT22;5617;54.046;10.676;2023-05-21T12:47:30;25.90;92.30
11126;DHT22;5617;54.046;10.676;2023-05-21T12:49:39;25.80;92.40
11126;DHT22;5617;54.046;10.676;2023-05-21T12:51:48;25.80;92.40
11126;DHT22;5617;54.046;10.676;2023-05-21T12:53:57;25.90;92.40
11126;DHT22;5617;54.046;10.676;2023-05-21T12:56:08;25.70;92.40
11126;DHT22;5617;54.046;10.676;2023-05-21T12:58:20;25.70;92.50
11126;DHT22;5617;54.046;10.676;2023-05-21T13:00:28;25.70;92.60
11126;DHT22;5617;54.046;10.676;2023-05-21T13:02:38;25.80;92.40
11126;DHT22;5617;54.046;10.676;2023-05-21T13:04:46;26.00;92.20
11126;DHT22;5617;54.046;10.676;2023-05-21T13:06:54;26.00;92.10
11126;DHT22;5617;54.046;10.676;2023-05-21T13:09:03;26.10;92.20
11126;DHT22;5617;54.046;10.676;2023-05-21T13:11:11;26.10;91.90
11126;DHT22;5617;54.046;10.676;2023-05-21T13:13:18;26.00;91.60
11126;DHT22;5617;54.046;10.676;2023-05-21T13:15:26;26.10;91.70
11126;DHT22;5617;54.046;10.676;2023-05-21T13:17:34;26.30;91.50
11126;DHT22;5617;54.046;10.676;2023-05-21T13:19:41;26.10;91.40
11126;DHT22;5617;54.046;10.676;2023-05-21T13:21:49;26.00;91.30
11126;DHT22;5617;54.046;10.676;2023-05-21T13:23:56;26.00;91.40
11126;DHT22;5617;54.046;10.676;2023-05-21T13:26:05;26.10;91.50
11126;DHT22;5617;54.046;10.676;2023-05-21T13:28:13;26.20;91.30
11126;DHT22;5617;54.046;10.676;2023-05-21T13:30:21;26.20;91.10
11126;DHT22;5617;54.046;10.676;2023-05-21T13:32:29;26.10;91.00
11126;DHT22;5617;54.046;10.676;2023-05-21T13:34:37;26.10;91.20
11126;DHT22;5617;54.046;10.676;2023-05-21T13:36:45;26.30;91.30